sensor_id;sensor_type;location;lat;lon;timestamp;P1;durP1;ratioP1;P2;durP2;ratioP2
56537;SDS011;42435;53.292;6.000;2023-12-04T00:01:20;43.60;;;22.65;;
56537;SDS011;42435;53.292;6.000;2023-12-04T00:03:47;47.47;;;23.17;;
56537;SDS011;42435;53.292;6.000;2023-12-04T00:06:12;49.65;;;24.23;;
56537;SDS011;42435;53.292;6.000;2023-12-04T00:08:38;47.25;;;22.50;;
56537;SDS011;42435;53.292;6.000;2023-12-04T00:11:04;47.80;;;23.52;;
56537;SDS011;42435;53.292;6.000;2023-12-04T00:13:31;49.95;;;23.58;;
56537;SDS011;42435;53.292;6.000;2023-12-04T00:15:56;53.05;;;24.52;;
56537;SDS011;42435;53.292;6.000;2023-12-04T00:18:25;51.47;;;24.10;;
56537;SDS011;42435;53.292;6.000;2023-12-04T00:20:50;49.30;;;23.17;;
56537;SDS011;42435;53.292;6.000;2023-12-04T00:23:17;48.60;;;23.35;;
56537;SDS011;42435;53.292;6.000;2023-12-04T00:25:42;48.15;;;22.52;;
56537;SDS011;42435;53.292;6.000;2023-12-04T00:28:08;48.97;;;23.75;;
56537;SDS011;42435;53.292;6.000;2023-12-04T00:30:34;48.78;;;24.88;;
56537;SDS011;42435;53.292;6.000;2023-12-04T00:33:00;48.72;;;23.27;;
56537;SDS011;42435;53.292;6.000;2023-12-04T00:35:25;47.97;;;22.70;;
56537;SDS011;42435;53.292;6.000;2023-12-04T00:37:51;50.25;;;23.33;;
56537;SDS011;42435;53.292;6.000;2023-12-04T00:40:16;46.55;;;23.02;;
56537;SDS011;42435;53.292;6.000;2023-12-04T00:42:42;44.92;;;23.17;;
56537;SDS011;42435;53.292;6.000;2023-12-04T00:45:07;43.58;;;22.70;;
56537;SDS011;42435;53.292;6.000;2023-12-04T00:47:33;54.90;;;25.08;;
56537;SDS011;42435;53.292;6.000;2023-12-04T00:49:59;47.72;;;22.23;;
56537;SDS011;42435;53.292;6.000;2023-12-04T00:52:25;42.47;;;22.02;;
56537;SDS011;42435;53.292;6.000;2023-12-04T00:54:50;41.70;;;20.58;;
56537;SDS011;42435;53.292;6.000;2023-12-04T00:57:16;45.92;;;21.58;;
56537;SDS011;42435;53.292;6.000;2023-12-04T00:59:42;49.97;;;23.17;;
56537;SDS011;42435;53.292;6.000;2023-12-04T01:02:07;46.00;;;22.88;;
56537;SDS011;42435;53.292;6.000;2023-12-04T01:04:33;46.72;;;22.15;;
56537;SDS011;42435;53.292;6.000;2023-12-04T01:06:59;47.13;;;22.38;;
56537;SDS011;42435;53.292;6.000;2023-12-04T01:09:25;44.05;;;23.15;;
56537;SDS011;42435;53.292;6.000;2023-12-04T01:11:53;39.33;;;19.08;;
56537;SDS011;42435;53.292;6.000;2023-12-04T01:14:19;48.47;;;22.88;;
56537;SDS011;42435;53.292;6.000;2023-12-04T01:16:46;41.75;;;21.73;;
56537;SDS011;42435;53.292;6.000;2023-12-04T01:19:11;46.42;;;23.38;;
56537;SDS011;42435;53.292;6.000;2023-12-04T01:21:37;41.70;;;20.85;;
56537;SDS011;42435;53.292;6.000;2023-12-04T01:24:03;46.03;;;22.63;;
56537;SDS011;42435;53.292;6.000;2023-12-04T01:26:29;45.33;;;22.95;;
56537;SDS011;42435;53.292;6.000;2023-12-04T01:28:55;49.08;;;23.35;;
56537;SDS011;42435;53.292;6.000;2023-12-04T01:31:21;45.58;;;20.67;;
56537;SDS011;42435;53.292;6.000;2023-12-04T01:33:48;42.25;;;21.42;;
56537;SDS011;42435;53.292;6.000;2023-12-04T01:36:14;42.67;;;22.25;;
56537;SDS011;42435;53.292;6.000;2023-12-04T01:38:39;40.45;;;21.45;;
56537;SDS011;42435;53.292;6.000;2023-12-04T01:41:05;48.38;;;22.77;;
56537;SDS011;42435;53.292;6.000;2023-12-04T01:43:31;37.55;;;19.17;;
56537;SDS011;42435;53.292;6.000;2023-12-04T01:46:00;41.42;;;21.25;;
56537;SDS011;42435;53.292;6.000;2023-12-04T01:48:26;39.35;;;20.58;;
56537;SDS011;42435;53.292;6.000;2023-12-04T01:50:53;41.67;;;21.55;;
56537;SDS011;42435;53.292;6.000;2023-12-04T01:53:20;39.47;;;19.65;;
56537;SDS011;42435;53.292;6.000;2023-12-04T01:55:46;43.95;;;20.80;;
56537;SDS011;42435;53.292;6.000;2023-12-04T01:58:11;46.08;;;22.23;;
56537;SDS011;42435;53.292;6.000;2023-12-04T02:00:37;37.03;;;19.98;;
56537;SDS011;42435;53.292;6.000;2023-12-04T02:03:03;42.05;;;20.95;;
56537;SDS011;42435;53.292;6.000;2023-12-04T02:05:29;43.65;;;21.15;;
56537;SDS011;42435;53.292;6.000;2023-12-04T02:07:56;42.60;;;21.00;;
56537;SDS011;42435;53.292;6.000;2023-12-04T02:10:25;39.75;;;20.83;;
56537;SDS011;42435;53.292;6.000;2023-12-04T02:12:51;39.15;;;19.35;;
56537;SDS011;42435;53.292;6.000;2023-12-04T02:15:17;37.58;;;20.23;;
56537;SDS011;42435;53.292;6.000;2023-12-04T02:17:43;41.33;;;20.95;;
56537;SDS011;42435;53.292;6.000;2023-12-04T02:20:09;42.67;;;20.30;;
56537;SDS011;42435;53.292;6.000;2023-12-04T02:22:38;39.92;;;20.63;;
56537;SDS011;42435;53.292;6.000;2023-12-04T02:25:04;41.13;;;20.52;;
56537;SDS011;42435;53.292;6.000;2023-12-04T02:27:33;44.72;;;21.52;;
56537;SDS011;42435;53.292;6.000;2023-12-04T02:30:05;40.75;;;20.00;;
56537;SDS011;42435;53.292;6.000;2023-12-04T02:32:38;43.67;;;19.98;;
56537;SDS011;42435;53.292;6.000;2023-12-04T02:35:10;42.88;;;21.15;;
56537;SDS011;42435;53.292;6.000;2023-12-04T02:37:38;39.92;;;19.95;;
56537;SDS011;42435;53.292;6.000;2023-12-04T02:40:05;41.13;;;20.40;;
56537;SDS011;42435;53.292;6.000;2023-12-04T02:42:32;42.42;;;21.70;;
56537;SDS011;42435;53.292;6.000;2023-12-04T02:44:57;40.85;;;20.67;;
56537;SDS011;42435;53.292;6.000;2023-12-04T02:47:23;37.53;;;20.85;;
56537;SDS011;42435;53.292;6.000;2023-12-04T02:49:49;43.03;;;20.25;;
56537;SDS011;42435;53.292;6.000;2023-12-04T02:52:15;39.67;;;20.40;;
56537;SDS011;42435;53.292;6.000;2023-12-04T02:54:40;45.53;;;23.75;;
56537;SDS011;42435;53.292;6.000;2023-12-04T02:57:06;43.35;;;20.98;;
56537;SDS011;42435;53.292;6.000;2023-12-04T02:59:32;43.17;;;21.20;;
56537;SDS011;42435;53.292;6.000;2023-12-04T03:01:57;40.03;;;20.77;;
56537;SDS011;42435;53.292;6.000;2023-12-04T03:04:23;41.47;;;20.45;;
56537;SDS011;42435;53.292;6.000;2023-12-04T03:06:49;39.63;;;20.17;;
56537;SDS011;42435;53.292;6.000;2023-12-04T03:09:15;42.33;;;21.23;;
56537;SDS011;42435;53.292;6.000;2023-12-04T03:11:41;40.63;;;20.92;;
56537;SDS011;42435;53.292;6.000;2023-12-04T03:14:09;43.95;;;21.23;;
56537;SDS011;42435;53.292;6.000;2023-12-04T03:16:35;39.70;;;21.10;;
56537;SDS011;42435;53.292;6.000;2023-12-04T03:19:00;47.17;;;22.67;;
56537;SDS011;42435;53.292;6.000;2023-12-04T03:21:26;42.38;;;22.02;;
56537;SDS011;42435;53.292;6.000;2023-12-04T03:23:53;41.40;;;20.77;;
56537;SDS011;42435;53.292;6.000;2023-12-04T03:26:19;44.20;;;21.63;;
56537;SDS011;42435;53.292;6.000;2023-12-04T03:28:45;42.63;;;22.63;;
56537;SDS011;42435;53.292;6.000;2023-12-04T03:31:14;46.92;;;22.13;;
56537;SDS011;42435;53.292;6.000;2023-12-04T03:33:39;46.67;;;22.42;;
56537;SDS011;42435;53.292;6.000;2023-12-04T03:36:05;43.13;;;20.30;;
56537;SDS011;42435;53.292;6.000;2023-12-04T03:38:31;45.90;;;20.38;;
56537;SDS011;42435;53.292;6.000;2023-12-04T03:40:56;44.67;;;21.88;;
56537;SDS011;42435;53.292;6.000;2023-12-04T03:43:25;46.17;;;21.13;;
56537;SDS011;42435;53.292;6.000;2023-12-04T03:45:50;43.97;;;20.60;;
56537;SDS011;42435;53.292;6.000;2023-12-04T03:48:16;48.85;;;22.77;;
56537;SDS011;42435;53.292;6.000;2023-12-04T03:50:42;41.03;;;21.50;;
56537;SDS011;42435;53.292;6.000;2023-12-04T03:53:07;42.55;;;19.42;;
56537;SDS011;42435;53.292;6.000;2023-12-04T03:55:33;43.70;;;20.83;;
56537;SDS011;42435;53.292;6.000;2023-12-04T03:57:58;40.33;;;20.50;;
56537;SDS011;42435;53.292;6.000;2023-12-04T04:00:24;46.40;;;23.17;;
56537;SDS011;42435;53.292;6.000;2023-12-04T04:02:50;46.33;;;21.58;;
56537;SDS011;42435;53.292;6.000;2023-12-04T04:05:15;41.65;;;21.08;;
56537;SDS011;42435;53.292;6.000;2023-12-04T04:07:41;48.38;;;21.30;;
56537;SDS011;42435;53.292;6.000;2023-12-04T04:10:08;49.70;;;23.05;;
56537;SDS011;42435;53.292;6.000;2023-12-04T04:12:34;44.58;;;21.13;;
56537;SDS011;42435;53.292;6.000;2023-12-04T04:15:00;46.78;;;20.45;;
56537;SDS011;42435;53.292;6.000;2023-12-04T04:17:26;45.58;;;23.20;;
56537;SDS011;42435;53.292;6.000;2023-12-04T04:19:52;41.47;;;21.40;;
56537;SDS011;42435;53.292;6.000;2023-12-04T04:22:20;38.15;;;19.60;;
56537;SDS011;42435;53.292;6.000;2023-12-04T04:24:46;41.67;;;20.40;;
56537;SDS011;42435;53.292;6.000;2023-12-04T04:27:12;43.85;;;22.08;;
56537;SDS011;42435;53.292;6.000;2023-12-04T04:29:37;38.45;;;20.40;;
56537;SDS011;42435;53.292;6.000;2023-12-04T04:32:03;42.40;;;20.00;;
56537;SDS011;42435;53.292;6.000;2023-12-04T04:34:29;42.33;;;19.08;;
56537;SDS011;42435;53.292;6.000;2023-12-04T04:36:55;40.53;;;20.40;;
56537;SDS011;42435;53.292;6.000;2023-12-04T04:39:21;40.65;;;20.00;;
56537;SDS011;42435;53.292;6.000;2023-12-04T04:41:47;40.28;;;18.77;;
56537;SDS011;42435;53.292;6.000;2023-12-04T04:44:12;40.75;;;18.20;;
56537;SDS011;42435;53.292;6.000;2023-12-04T04:46:38;39.38;;;19.33;;
56537;SDS011;42435;53.292;6.000;2023-12-04T04:49:04;41.88;;;19.17;;
56537;SDS011;42435;53.292;6.000;2023-12-04T04:51:32;38.13;;;17.88;;
56537;SDS011;42435;53.292;6.000;2023-12-04T04:53:59;43.45;;;19.00;;
56537;SDS011;42435;53.292;6.000;2023-12-04T04:56:25;38.65;;;19.02;;
56537;SDS011;42435;53.292;6.000;2023-12-04T04:58:51;36.78;;;18.70;;
56537;SDS011;42435;53.292;6.000;2023-12-04T05:01:16;37.10;;;17.38;;
56537;SDS011;42435;53.292;6.000;2023-12-04T05:03:42;42.30;;;19.02;;
56537;SDS011;42435;53.292;6.000;2023-12-04T05:06:08;38.20;;;18.15;;
56537;SDS011;42435;53.292;6.000;2023-12-04T05:08:33;38.08;;;18.20;;
56537;SDS011;42435;53.292;6.000;2023-12-04T05:10:59;32.35;;;16.67;;
56537;SDS011;42435;53.292;6.000;2023-12-04T05:13:25;37.80;;;17.40;;
56537;SDS011;42435;53.292;6.000;2023-12-04T05:15:50;35.55;;;17.42;;
56537;SDS011;42435;53.292;6.000;2023-12-04T05:18:16;37.38;;;17.50;;
56537;SDS011;42435;53.292;6.000;2023-12-04T05:20:42;34.63;;;17.33;;
56537;SDS011;42435;53.292;6.000;2023-12-04T05:23:07;31.67;;;16.33;;
56537;SDS011;42435;53.292;6.000;2023-12-04T05:25:33;36.15;;;18.17;;
56537;SDS011;42435;53.292;6.000;2023-12-04T05:27:58;37.33;;;17.45;;
56537;SDS011;42435;53.292;6.000;2023-12-04T05:30:24;37.65;;;18.20;;
56537;SDS011;42435;53.292;6.000;2023-12-04T05:32:49;33.15;;;18.17;;
56537;SDS011;42435;53.292;6.000;2023-12-04T05:35:15;35.03;;;17.17;;
56537;SDS011;42435;53.292;6.000;2023-12-04T05:37:42;35.78;;;16.65;;
56537;SDS011;42435;53.292;6.000;2023-12-04T05:40:08;36.95;;;16.92;;
56537;SDS011;42435;53.292;6.000;2023-12-04T05:42:36;33.38;;;17.40;;
56537;SDS011;42435;53.292;6.000;2023-12-04T05:45:02;38.08;;;16.98;;
56537;SDS011;42435;53.292;6.000;2023-12-04T05:47:27;33.80;;;17.48;;
56537;SDS011;42435;53.292;6.000;2023-12-04T05:49:53;30.95;;;15.73;;
56537;SDS011;42435;53.292;6.000;2023-12-04T05:52:19;34.80;;;16.73;;
56537;SDS011;42435;53.292;6.000;2023-12-04T05:54:44;32.97;;;16.90;;
56537;SDS011;42435;53.292;6.000;2023-12-04T05:57:10;35.38;;;16.90;;
56537;SDS011;42435;53.292;6.000;2023-12-04T05:59:36;37.35;;;18.35;;
56537;SDS011;42435;53.292;6.000;2023-12-04T06:02:01;35.47;;;17.63;;
56537;SDS011;42435;53.292;6.000;2023-12-04T06:04:27;33.78;;;16.20;;
56537;SDS011;42435;53.292;6.000;2023-12-04T06:06:53;34.63;;;16.92;;
56537;SDS011;42435;53.292;6.000;2023-12-04T06:09:18;35.05;;;16.52;;
56537;SDS011;42435;53.292;6.000;2023-12-04T06:11:44;30.50;;;15.75;;
56537;SDS011;42435;53.292;6.000;2023-12-04T06:14:09;35.13;;;16.80;;
56537;SDS011;42435;53.292;6.000;2023-12-04T06:16:36;36.70;;;17.52;;
56537;SDS011;42435;53.292;6.000;2023-12-04T06:19:02;34.40;;;16.60;;
56537;SDS011;42435;53.292;6.000;2023-12-04T06:21:29;35.58;;;18.02;;
56537;SDS011;42435;53.292;6.000;2023-12-04T06:23:55;33.97;;;18.10;;
56537;SDS011;42435;53.292;6.000;2023-12-04T06:26:21;30.25;;;14.65;;
56537;SDS011;42435;53.292;6.000;2023-12-04T06:28:47;29.70;;;16.33;;
56537;SDS011;42435;53.292;6.000;2023-12-04T06:31:13;32.53;;;16.05;;
56537;SDS011;42435;53.292;6.000;2023-12-04T06:33:39;28.75;;;14.82;;
56537;SDS011;42435;53.292;6.000;2023-12-04T06:36:05;30.08;;;15.90;;
56537;SDS011;42435;53.292;6.000;2023-12-04T06:38:32;33.03;;;14.82;;
56537;SDS011;42435;53.292;6.000;2023-12-04T06:41:00;28.60;;;14.95;;
56537;SDS011;42435;53.292;6.000;2023-12-04T06:43:25;32.65;;;16.10;;
56537;SDS011;42435;53.292;6.000;2023-12-04T06:45:53;33.05;;;16.98;;
56537;SDS011;42435;53.292;6.000;2023-12-04T06:48:22;27.60;;;14.20;;
56537;SDS011;42435;53.292;6.000;2023-12-04T06:50:47;34.33;;;17.35;;
56537;SDS011;42435;53.292;6.000;2023-12-04T06:53:13;33.03;;;15.95;;
56537;SDS011;42435;53.292;6.000;2023-12-04T06:55:39;27.60;;;14.90;;
56537;SDS011;42435;53.292;6.000;2023-12-04T06:58:05;29.58;;;16.17;;
56537;SDS011;42435;53.292;6.000;2023-12-04T07:00:31;29.27;;;16.25;;
56537;SDS011;42435;53.292;6.000;2023-12-04T07:02:56;29.85;;;13.52;;
56537;SDS011;42435;53.292;6.000;2023-12-04T07:05:26;28.70;;;14.38;;
56537;SDS011;42435;53.292;6.000;2023-12-04T07:07:52;27.48;;;14.43;;
56537;SDS011;42435;53.292;6.000;2023-12-04T07:10:17;29.38;;;15.45;;
56537;SDS011;42435;53.292;6.000;2023-12-04T07:12:44;25.83;;;13.98;;
56537;SDS011;42435;53.292;6.000;2023-12-04T07:15:10;29.98;;;14.77;;
56537;SDS011;42435;53.292;6.000;2023-12-04T07:17:37;26.13;;;14.85;;
56537;SDS011;42435;53.292;6.000;2023-12-04T07:20:03;29.25;;;14.57;;
56537;SDS011;42435;53.292;6.000;2023-12-04T07:22:34;28.38;;;14.68;;
56537;SDS011;42435;53.292;6.000;2023-12-04T07:25:00;26.10;;;13.73;;
56537;SDS011;42435;53.292;6.000;2023-12-04T07:27:25;27.17;;;13.90;;
56537;SDS011;42435;53.292;6.000;2023-12-04T07:29:51;23.30;;;13.52;;
56537;SDS011;42435;53.292;6.000;2023-12-04T07:32:17;26.70;;;14.27;;
56537;SDS011;42435;53.292;6.000;2023-12-04T07:34:43;28.60;;;14.82;;
56537;SDS011;42435;53.292;6.000;2023-12-04T07:37:09;29.00;;;14.18;;
56537;SDS011;42435;53.292;6.000;2023-12-04T07:39:35;26.38;;;13.25;;
56537;SDS011;42435;53.292;6.000;2023-12-04T07:42:00;24.88;;;13.40;;
56537;SDS011;42435;53.292;6.000;2023-12-04T07:44:26;25.80;;;13.48;;
56537;SDS011;42435;53.292;6.000;2023-12-04T07:46:51;29.08;;;13.45;;
56537;SDS011;42435;53.292;6.000;2023-12-04T07:49:17;24.83;;;13.27;;
56537;SDS011;42435;53.292;6.000;2023-12-04T07:51:43;23.98;;;13.38;;
56537;SDS011;42435;53.292;6.000;2023-12-04T07:54:08;26.88;;;13.18;;
56537;SDS011;42435;53.292;6.000;2023-12-04T07:56:34;25.70;;;14.43;;
56537;SDS011;42435;53.292;6.000;2023-12-04T07:58:59;23.35;;;12.35;;
56537;SDS011;42435;53.292;6.000;2023-12-04T08:01:25;25.50;;;13.05;;
56537;SDS011;42435;53.292;6.000;2023-12-04T08:03:51;23.17;;;12.13;;
56537;SDS011;42435;53.292;6.000;2023-12-04T08:06:16;24.98;;;12.98;;
56537;SDS011;42435;53.292;6.000;2023-12-04T08:08:44;26.02;;;13.02;;
56537;SDS011;42435;53.292;6.000;2023-12-04T08:11:10;23.88;;;13.32;;
56537;SDS011;42435;53.292;6.000;2023-12-04T08:13:37;24.63;;;12.05;;
56537;SDS011;42435;53.292;6.000;2023-12-04T08:16:03;26.02;;;12.05;;
56537;SDS011;42435;53.292;6.000;2023-12-04T08:18:29;23.88;;;13.23;;
56537;SDS011;42435;53.292;6.000;2023-12-04T08:20:55;25.45;;;12.38;;
56537;SDS011;42435;53.292;6.000;2023-12-04T08:23:20;25.20;;;12.88;;
56537;SDS011;42435;53.292;6.000;2023-12-04T08:25:46;22.65;;;12.48;;
56537;SDS011;42435;53.292;6.000;2023-12-04T08:28:12;25.05;;;11.98;;
56537;SDS011;42435;53.292;6.000;2023-12-04T08:30:38;24.52;;;13.20;;
56537;SDS011;42435;53.292;6.000;2023-12-04T08:33:03;23.98;;;12.85;;
56537;SDS011;42435;53.292;6.000;2023-12-04T08:35:29;19.90;;;11.25;;
56537;SDS011;42435;53.292;6.000;2023-12-04T08:37:55;24.35;;;11.85;;
56537;SDS011;42435;53.292;6.000;2023-12-04T08:40:20;21.55;;;12.85;;
56537;SDS011;42435;53.292;6.000;2023-12-04T08:42:46;18.80;;;11.20;;
56537;SDS011;42435;53.292;6.000;2023-12-04T08:45:12;21.45;;;11.90;;
56537;SDS011;42435;53.292;6.000;2023-12-04T08:47:38;21.88;;;10.85;;
56537;SDS011;42435;53.292;6.000;2023-12-04T08:50:04;22.75;;;12.35;;
56537;SDS011;42435;53.292;6.000;2023-12-04T08:52:30;19.58;;;10.57;;
56537;SDS011;42435;53.292;6.000;2023-12-04T08:54:56;22.17;;;11.73;;
56537;SDS011;42435;53.292;6.000;2023-12-04T08:57:21;21.42;;;11.63;;
56537;SDS011;42435;53.292;6.000;2023-12-04T08:59:47;20.95;;;11.13;;
56537;SDS011;42435;53.292;6.000;2023-12-04T09:02:13;20.13;;;10.38;;
56537;SDS011;42435;53.292;6.000;2023-12-04T09:04:38;18.98;;;10.95;;
56537;SDS011;42435;53.292;6.000;2023-12-04T09:07:04;22.38;;;12.52;;
56537;SDS011;42435;53.292;6.000;2023-12-04T09:09:29;18.90;;;10.40;;
56537;SDS011;42435;53.292;6.000;2023-12-04T09:11:55;21.30;;;10.35;;
56537;SDS011;42435;53.292;6.000;2023-12-04T09:14:21;19.83;;;10.55;;
56537;SDS011;42435;53.292;6.000;2023-12-04T09:16:48;19.80;;;10.07;;
56537;SDS011;42435;53.292;6.000;2023-12-04T09:19:14;18.83;;;9.98;;
56537;SDS011;42435;53.292;6.000;2023-12-04T09:21:40;18.40;;;9.65;;
56537;SDS011;42435;53.292;6.000;2023-12-04T09:24:05;20.63;;;10.40;;
56537;SDS011;42435;53.292;6.000;2023-12-04T09:26:31;18.95;;;8.95;;
56537;SDS011;42435;53.292;6.000;2023-12-04T09:29:00;18.38;;;10.15;;
56537;SDS011;42435;53.292;6.000;2023-12-04T09:31:26;17.00;;;9.55;;
56537;SDS011;42435;53.292;6.000;2023-12-04T09:33:51;19.95;;;9.48;;
56537;SDS011;42435;53.292;6.000;2023-12-04T09:36:17;16.20;;;9.07;;
56537;SDS011;42435;53.292;6.000;2023-12-04T09:38:43;17.33;;;9.68;;
56537;SDS011;42435;53.292;6.000;2023-12-04T09:41:09;18.40;;;9.25;;
56537;SDS011;42435;53.292;6.000;2023-12-04T09:43:46;13.00;;;8.30;;
56537;SDS011;42435;53.292;6.000;2023-12-04T09:46:12;18.75;;;9.43;;
56537;SDS011;42435;53.292;6.000;2023-12-04T09:48:40;17.90;;;9.80;;
56537;SDS011;42435;53.292;6.000;2023-12-04T09:51:08;21.95;;;10.30;;
56537;SDS011;42435;53.292;6.000;2023-12-04T09:53:35;19.05;;;9.85;;
56537;SDS011;42435;53.292;6.000;2023-12-04T09:56:02;17.55;;;9.10;;
56537;SDS011;42435;53.292;6.000;2023-12-04T09:58:29;17.13;;;9.02;;
56537;SDS011;42435;53.292;6.000;2023-12-04T10:01:03;16.33;;;9.43;;
56537;SDS011;42435;53.292;6.000;2023-12-04T10:03:29;18.15;;;9.68;;
56537;SDS011;42435;53.292;6.000;2023-12-04T10:05:56;18.35;;;9.13;;
56537;SDS011;42435;53.292;6.000;2023-12-04T10:08:25;16.13;;;9.50;;
56537;SDS011;42435;53.292;6.000;2023-12-04T10:10:54;16.33;;;9.35;;
56537;SDS011;42435;53.292;6.000;2023-12-04T10:13:20;14.93;;;8.68;;
56537;SDS011;42435;53.292;6.000;2023-12-04T10:15:46;17.85;;;10.05;;
56537;SDS011;42435;53.292;6.000;2023-12-04T10:18:25;15.20;;;8.90;;
56537;SDS011;42435;53.292;6.000;2023-12-04T10:20:55;16.55;;;8.90;;
56537;SDS011;42435;53.292;6.000;2023-12-04T10:23:22;18.48;;;10.40;;
56537;SDS011;42435;53.292;6.000;2023-12-04T10:25:49;17.42;;;9.13;;
56537;SDS011;42435;53.292;6.000;2023-12-04T10:28:16;18.85;;;8.93;;
56537;SDS011;42435;53.292;6.000;2023-12-04T10:30:43;15.43;;;8.38;;
56537;SDS011;42435;53.292;6.000;2023-12-04T10:33:10;17.08;;;9.20;;
56537;SDS011;42435;53.292;6.000;2023-12-04T10:35:37;15.93;;;8.48;;
56537;SDS011;42435;53.292;6.000;2023-12-04T10:38:03;15.30;;;8.15;;
56537;SDS011;42435;53.292;6.000;2023-12-04T10:40:30;17.48;;;9.20;;
56537;SDS011;42435;53.292;6.000;2023-12-04T10:43:11;17.95;;;8.30;;
56537;SDS011;42435;53.292;6.000;2023-12-04T10:45:40;14.15;;;8.45;;
56537;SDS011;42435;53.292;6.000;2023-12-04T10:48:07;15.15;;;8.85;;
56537;SDS011;42435;53.292;6.000;2023-12-04T10:50:34;17.13;;;8.70;;
56537;SDS011;42435;53.292;6.000;2023-12-04T10:53:07;13.63;;;8.20;;
56537;SDS011;42435;53.292;6.000;2023-12-04T10:55:34;14.70;;;9.23;;
56537;SDS011;42435;53.292;6.000;2023-12-04T10:58:02;17.52;;;8.27;;
56537;SDS011;42435;53.292;6.000;2023-12-04T11:00:38;14.25;;;7.85;;
56537;SDS011;42435;53.292;6.000;2023-12-04T11:03:09;16.02;;;10.35;;
56537;SDS011;42435;53.292;6.000;2023-12-04T11:05:39;16.70;;;8.93;;
56537;SDS011;42435;53.292;6.000;2023-12-04T11:08:09;15.55;;;8.77;;
56537;SDS011;42435;53.292;6.000;2023-12-04T11:10:37;15.05;;;8.50;;
56537;SDS011;42435;53.292;6.000;2023-12-04T11:13:17;14.93;;;9.05;;
56537;SDS011;42435;53.292;6.000;2023-12-04T11:15:48;18.50;;;8.25;;
56537;SDS011;42435;53.292;6.000;2023-12-04T11:18:15;15.23;;;8.52;;
56537;SDS011;42435;53.292;6.000;2023-12-04T11:20:56;16.10;;;8.85;;
56537;SDS011;42435;53.292;6.000;2023-12-04T11:23:25;14.00;;;7.88;;
56537;SDS011;42435;53.292;6.000;2023-12-04T11:25:52;13.50;;;7.60;;
56537;SDS011;42435;53.292;6.000;2023-12-04T11:28:19;16.00;;;8.95;;
56537;SDS011;42435;53.292;6.000;2023-12-04T11:30:45;14.05;;;8.13;;
56537;SDS011;42435;53.292;6.000;2023-12-04T11:33:11;14.85;;;8.13;;
56537;SDS011;42435;53.292;6.000;2023-12-04T11:35:37;16.15;;;8.38;;
56537;SDS011;42435;53.292;6.000;2023-12-04T11:38:04;15.07;;;9.13;;
56537;SDS011;42435;53.292;6.000;2023-12-04T11:40:32;13.70;;;7.50;;
56537;SDS011;42435;53.292;6.000;2023-12-04T11:42:57;14.10;;;8.52;;
56537;SDS011;42435;53.292;6.000;2023-12-04T11:45:23;18.52;;;8.57;;
56537;SDS011;42435;53.292;6.000;2023-12-04T11:50:22;13.10;;;7.80;;
56537;SDS011;42435;53.292;6.000;2023-12-04T11:52:50;12.48;;;7.47;;
56537;SDS011;42435;53.292;6.000;2023-12-04T11:55:16;17.13;;;8.30;;
56537;SDS011;42435;53.292;6.000;2023-12-04T11:57:44;14.80;;;8.57;;
56537;SDS011;42435;53.292;6.000;2023-12-04T12:02:48;15.30;;;8.20;;
56537;SDS011;42435;53.292;6.000;2023-12-04T12:05:35;14.85;;;8.23;;
56537;SDS011;42435;53.292;6.000;2023-12-04T12:08:03;13.88;;;8.13;;
56537;SDS011;42435;53.292;6.000;2023-12-04T12:10:30;13.00;;;8.02;;
56537;SDS011;42435;53.292;6.000;2023-12-04T12:12:57;19.75;;;10.10;;
56537;SDS011;42435;53.292;6.000;2023-12-04T12:15:23;14.15;;;8.27;;
56537;SDS011;42435;53.292;6.000;2023-12-04T12:17:49;13.60;;;7.95;;
56537;SDS011;42435;53.292;6.000;2023-12-04T12:20:18;12.00;;;7.57;;
56537;SDS011;42435;53.292;6.000;2023-12-04T12:22:45;14.40;;;7.07;;
56537;SDS011;42435;53.292;6.000;2023-12-04T12:25:13;14.02;;;8.13;;
56537;SDS011;42435;53.292;6.000;2023-12-04T12:27:39;14.90;;;7.47;;
56537;SDS011;42435;53.292;6.000;2023-12-04T12:30:06;13.50;;;7.35;;
56537;SDS011;42435;53.292;6.000;2023-12-04T12:32:32;12.18;;;7.70;;
56537;SDS011;42435;53.292;6.000;2023-12-04T12:34:59;14.55;;;7.35;;
56537;SDS011;42435;53.292;6.000;2023-12-04T12:37:24;12.95;;;7.80;;
56537;SDS011;42435;53.292;6.000;2023-12-04T12:39:53;12.65;;;7.20;;
56537;SDS011;42435;53.292;6.000;2023-12-04T12:42:26;16.48;;;7.75;;
56537;SDS011;42435;53.292;6.000;2023-12-04T12:44:53;13.30;;;7.43;;
56537;SDS011;42435;53.292;6.000;2023-12-04T12:47:20;12.73;;;7.55;;
56537;SDS011;42435;53.292;6.000;2023-12-04T12:49:46;15.02;;;8.30;;
56537;SDS011;42435;53.292;6.000;2023-12-04T12:52:12;13.80;;;8.77;;
56537;SDS011;42435;53.292;6.000;2023-12-04T12:54:42;12.65;;;6.88;;
56537;SDS011;42435;53.292;6.000;2023-12-04T12:57:09;12.40;;;7.75;;
56537;SDS011;42435;53.292;6.000;2023-12-04T12:59:37;12.98;;;7.78;;
56537;SDS011;42435;53.292;6.000;2023-12-04T13:02:04;12.48;;;7.78;;
56537;SDS011;42435;53.292;6.000;2023-12-04T13:07:08;13.52;;;7.95;;
56537;SDS011;42435;53.292;6.000;2023-12-04T13:09:34;12.05;;;6.85;;
56537;SDS011;42435;53.292;6.000;2023-12-04T13:12:04;12.70;;;6.97;;
56537;SDS011;42435;53.292;6.000;2023-12-04T13:14:30;12.27;;;7.47;;
56537;SDS011;42435;53.292;6.000;2023-12-04T13:16:56;14.95;;;7.88;;
56537;SDS011;42435;53.292;6.000;2023-12-04T13:19:23;10.95;;;6.78;;
56537;SDS011;42435;53.292;6.000;2023-12-04T13:21:49;12.50;;;7.60;;
56537;SDS011;42435;53.292;6.000;2023-12-04T13:24:15;13.73;;;7.78;;
56537;SDS011;42435;53.292;6.000;2023-12-04T13:26:42;11.88;;;7.43;;
56537;SDS011;42435;53.292;6.000;2023-12-04T13:29:11;14.32;;;7.65;;
56537;SDS011;42435;53.292;6.000;2023-12-04T13:31:40;12.80;;;7.50;;
56537;SDS011;42435;53.292;6.000;2023-12-04T13:34:05;12.85;;;7.63;;
56537;SDS011;42435;53.292;6.000;2023-12-04T13:36:32;11.13;;;7.25;;
56537;SDS011;42435;53.292;6.000;2023-12-04T13:38:59;13.73;;;8.63;;
56537;SDS011;42435;53.292;6.000;2023-12-04T13:41:24;13.18;;;7.63;;
56537;SDS011;42435;53.292;6.000;2023-12-04T13:44:08;14.27;;;7.90;;
56537;SDS011;42435;53.292;6.000;2023-12-04T13:46:34;10.60;;;6.90;;
56537;SDS011;42435;53.292;6.000;2023-12-04T13:49:01;13.68;;;7.65;;
56537;SDS011;42435;53.292;6.000;2023-12-04T13:51:27;11.18;;;7.00;;
56537;SDS011;42435;53.292;6.000;2023-12-04T13:53:53;12.55;;;7.80;;
56537;SDS011;42435;53.292;6.000;2023-12-04T13:56:25;15.35;;;8.55;;
56537;SDS011;42435;53.292;6.000;2023-12-04T13:59:09;13.60;;;7.30;;
56537;SDS011;42435;53.292;6.000;2023-12-04T14:01:43;10.73;;;6.82;;
56537;SDS011;42435;53.292;6.000;2023-12-04T14:04:09;13.40;;;8.13;;
56537;SDS011;42435;53.292;6.000;2023-12-04T14:06:35;13.88;;;8.25;;
56537;SDS011;42435;53.292;6.000;2023-12-04T14:09:00;15.95;;;7.65;;
56537;SDS011;42435;53.292;6.000;2023-12-04T14:11:26;14.15;;;9.23;;
56537;SDS011;42435;53.292;6.000;2023-12-04T14:13:52;13.60;;;8.10;;
56537;SDS011;42435;53.292;6.000;2023-12-04T14:16:18;12.10;;;7.05;;
56537;SDS011;42435;53.292;6.000;2023-12-04T14:18:44;13.77;;;8.15;;
56537;SDS011;42435;53.292;6.000;2023-12-04T14:21:10;12.85;;;7.30;;
56537;SDS011;42435;53.292;6.000;2023-12-04T14:23:36;11.77;;;7.78;;
56537;SDS011;42435;53.292;6.000;2023-12-04T14:26:02;12.13;;;7.47;;
56537;SDS011;42435;53.292;6.000;2023-12-04T14:28:28;13.32;;;7.68;;
56537;SDS011;42435;53.292;6.000;2023-12-04T14:30:53;14.90;;;8.50;;